Time;durP1;ratioP1;P1;durP2;ratioP2;P2;SDS_P1;SDS_P2;PMS_P1;PMS_P2;Temp;Humidity;BMP_temperature;BMP_pressure;BME280_temperature;BME280_humidity;BME280_pressure;Samples;Min_cycle;Max_cycle;Signal;HPM_P1;HPM_P2
2020/12/20 00:02:13;;;;;;;18.85;12.20;;;;;;;5.38;72.85;101923.53;1761252;80;21150;-64
2020/12/20 00:04:41;;;;;;;21.62;13.50;;;;;;;5.32;72.99;101921.18;1782967;80;21132;-63
2020/12/20 00:07:10;;;;;;;20.35;12.58;;;;;;;5.37;72.88;101930.46;1769448;80;21142;-63
2020/12/20 00:09:37;;;;;;;22.27;12.25;;;;;;;5.36;72.76;101929.59;1771858;80;21462;-62
2020/12/20 00:12:05;;;;;;;18.42;11.75;;;;;;;5.32;72.76;101933.33;1780965;80;21559;-63
2020/12/20 00:14:36;;;;;;;19.40;12.28;;;;;;;5.23;72.83;101935.22;1767210;80;21121;-63
2020/12/20 00:17:08;;;;;;;19.65;12.00;;;;;;;5.19;72.95;101935.54;1769996;80;21265;-63
2020/12/20 00:19:36;;;;;;;20.95;12.23;;;;;;;5.18;73.02;101938.98;1764157;80;21131;-63
2020/12/20 00:22:06;;;;;;;19.48;12.07;;;;;;;5.23;72.87;101939.56;1764992;80;21134;-60
2020/12/20 00:24:34;;;;;;;20.52;12.90;;;;;;;5.26;72.79;101936.62;1766708;80;21127;-60
2020/12/20 00:27:01;;;;;;;22.75;13.68;;;;;;;5.27;72.82;101946.67;1763336;80;21588;-61
2020/12/20 00:29:32;;;;;;;22.02;14.00;;;;;;;5.29;72.82;101943.70;1759126;80;21259;-60
2020/12/20 00:32:02;;;;;;;19.48;12.45;;;;;;;5.27;72.74;101944.06;1756653;80;21152;-61
2020/12/20 00:34:30;;;;;;;20.85;12.80;;;;;;;5.26;72.73;101943.59;1760904;80;21130;-60
2020/12/20 00:36:58;;;;;;;19.65;12.55;;;;;;;5.24;72.78;101943.95;1768262;80;21142;-61
2020/12/20 00:39:26;;;;;;;20.40;12.53;;;;;;;5.21;72.87;101946.92;1758726;80;21319;-61
2020/12/20 00:41:57;;;;;;;18.05;11.45;;;;;;;5.21;72.83;101950.84;1761580;80;21275;-59
2020/12/20 00:44:25;;;;;;;23.42;13.08;;;;;;;5.21;72.74;101954.76;1766866;80;21159;-60
2020/12/20 00:46:54;;;;;;;20.40;13.13;;;;;;;5.19;72.76;101956.83;1757780;81;21151;-60
2020/12/20 00:49:23;;;;;;;22.20;13.65;;;;;;;5.18;72.74;101953.34;1759374;80;21591;-61
2020/12/20 00:51:53;;;;;;;20.52;12.93;;;;;;;5.22;72.68;101951.72;1762385;80;21087;-60
2020/12/20 00:54:20;;;;;;;18.02;12.20;;;;;;;5.20;72.68;101950.37;1756057;80;21133;-60
2020/12/20 00:56:48;;;;;;;20.50;12.95;;;;;;;5.16;72.72;101952.40;1755969;80;21589;-61
2020/12/20 00:59:16;;;;;;;19.95;12.28;;;;;;;5.16;72.68;101955.01;1758658;80;21166;-61
2020/12/20 01:01:44;;;;;;;18.42;12.05;;;;;;;5.15;72.74;101952.33;1782084;80;21245;-60
2020/12/20 01:04:12;;;;;;;21.15;12.85;;;;;;;5.13;72.69;101949.67;1764095;80;21139;-61
2020/12/20 01:06:40;;;;;;;21.33;13.15;;;;;;;5.12;72.63;101949.61;1772485;80;21155;-61
2020/12/20 01:09:18;;;;;;;20.30;12.25;;;;;;;5.10;72.72;101956.09;1697272;83;21137;-60
2020/12/20 01:11:46;;;;;;;20.12;13.65;;;;;;;5.09;72.71;101953.41;1771595;80;21115;-60
2020/12/20 01:14:14;;;;;;;21.25;13.60;;;;;;;5.05;72.60;101965.08;1763368;79;21138;-61
2020/12/20 01:16:43;;;;;;;19.95;12.65;;;;;;;5.03;72.63;101960.22;1774786;80;21130;-60
2020/12/20 01:19:11;;;;;;;21.40;13.45;;;;;;;5.02;72.69;101967.57;1778688;80;21559;-60
2020/12/20 01:21:38;;;;;;;21.65;13.98;;;;;;;5.02;72.64;101967.97;1783374;80;21123;-61
2020/12/20 01:24:06;;;;;;;19.55;13.10;;;;;;;5.01;72.68;101959.27;1761715;80;21169;-62
2020/12/20 01:26:34;;;;;;;24.15;14.55;;;;;;;4.99;72.65;101960.03;1758527;80;21165;-59
2020/12/20 01:29:02;;;;;;;23.00;14.13;;;;;;;4.96;72.69;101960.83;1751278;80;21119;-60
2020/12/20 01:31:30;;;;;;;20.65;12.63;;;;;;;4.99;72.65;101957.42;1747601;80;21143;-60
2020/12/20 01:34:11;;;;;;;21.12;13.18;;;;;;;5.01;72.73;101949.23;1805479;77;22160;-59
2020/12/20 01:36:42;;;;;;;22.58;14.40;;;;;;;4.97;72.69;101952.56;1715166;83;21142;-59
2020/12/20 01:39:11;;;;;;;22.67;13.58;;;;;;;4.95;72.77;101948.61;1680122;84;21130;-61
2020/12/20 01:41:39;;;;;;;19.70;13.47;;;;;;;4.98;72.69;101953.94;1659055;84;21110;-61
2020/12/20 01:44:08;;;;;;;22.02;14.23;;;;;;;4.94;72.70;101949.44;1694285;84;21164;-61
2020/12/20 01:46:41;;;;;;;20.75;13.03;;;;;;;4.91;72.84;101951.94;1691930;84;21150;-61
2020/12/20 01:49:11;;;;;;;24.27;13.68;;;;;;;4.91;72.79;101953.23;1687521;83;21181;-61
2020/12/20 01:51:38;;;;;;;21.68;13.90;;;;;;;4.87;72.87;101954.83;1698310;84;21179;-60
2020/12/20 01:54:09;;;;;;;22.02;13.15;;;;;;;4.87;72.85;101955.27;1679323;84;21154;-61
2020/12/20 01:56:36;;;;;;;19.85;12.68;;;;;;;4.86;72.92;101957.40;1716650;83;21298;-61
2020/12/20 01:59:06;;;;;;;21.40;13.32;;;;;;;4.86;72.89;101956.09;1699736;83;21285;-61
2020/12/20 02:01:35;;;;;;;23.83;13.90;;;;;;;4.83;72.94;101955.58;1714384;83;21214;-62
2020/12/20 02:04:10;;;;;;;29.67;21.82;;;;;;;4.87;72.93;101950.92;1795642;77;28445;-60
2020/12/20 02:06:40;;;;;;;23.87;15.23;;;;;;;4.88;72.79;101951.39;1700551;83;21127;-61
2020/12/20 02:09:08;;;;;;;22.17;14.00;;;;;;;4.95;72.60;101953.83;1694185;84;21143;-61
2020/12/20 02:11:37;;;;;;;22.42;13.83;;;;;;;4.85;72.72;101957.83;1710312;84;21129;-62
2020/12/20 02:14:07;;;;;;;24.57;12.45;;;;;;;4.79;72.73;101958.91;1680477;84;21156;-61
2020/12/20 02:16:54;;;;;;;22.45;12.80;;;;;;;4.83;72.86;101959.49;1811529;77;22155;-60
2020/12/20 02:19:22;;;;;;;22.85;13.18;;;;;;;4.76;72.87;101965.31;1768762;80;21139;-59
2020/12/20 02:21:52;;;;;;;19.93;13.03;;;;;;;4.75;72.77;101959.19;1760614;81;21126;-61
2020/12/20 02:24:20;;;;;;;22.70;14.15;;;;;;;4.68;72.71;101961.09;1755431;81;21857;-62
2020/12/20 02:26:49;;;;;;;23.38;14.95;;;;;;;4.63;72.81;101959.16;1731594;81;21300;-63
2020/12/20 02:29:17;;;;;;;21.12;12.73;;;;;;;4.51;72.90;101966.98;1748949;81;21633;-62
2020/12/20 02:31:45;;;;;;;20.52;13.35;;;;;;;4.54;72.79;101974.92;1734127;81;21197;-62
2020/12/20 02:34:13;;;;;;;19.98;11.95;;;;;;;4.50;72.80;101973.02;1749628;81;21145;-62
2020/12/20 02:36:42;;;;;;;21.02;13.38;;;;;;;4.47;72.74;101978.12;1728848;81;21134;-61
2020/12/20 02:39:11;;;;;;;23.35;14.13;;;;;;;4.44;72.86;101977.59;1752920;81;21105;-62
2020/12/20 02:41:46;;;;;;;23.55;14.68;;;;;;;4.48;72.92;101967.29;1814686;77;22191;-60
2020/12/20 02:44:14;;;;;;;23.90;14.43;;;;;;;4.45;72.83;101977.17;1756921;80;21121;-60
2020/12/20 02:46:44;;;;;;;24.43;14.50;;;;;;;4.39;72.84;101976.53;1728924;81;21277;-61
2020/12/20 02:49:13;;;;;;;24.65;13.53;;;;;;;4.38;72.98;101977.78;1753471;81;21125;-62
2020/12/20 02:51:42;;;;;;;22.05;14.60;;;;;;;4.39;72.93;101975.66;1722488;81;21145;-62
2020/12/20 02:54:11;;;;;;;24.50;14.55;;;;;;;4.40;72.96;101977.44;1722054;81;21572;-62
2020/12/20 02:56:44;;;;;;;23.15;15.03;;;;;;;4.39;72.89;101971.74;1751046;81;21153;-61
2020/12/20 02:59:14;;;;;;;23.77;13.32;;;;;;;4.34;72.74;101972.84;1733617;81;21100;-61
2020/12/20 03:01:42;;;;;;;23.00;14.93;;;;;;;4.33;72.91;101977.59;1731755;81;21154;-62
2020/12/20 03:04:11;;;;;;;24.07;14.95;;;;;;;4.35;72.91;101973.33;1735065;81;21165;-62
2020/12/20 03:06:39;;;;;;;23.18;14.63;;;;;;;4.35;72.90;101974.62;1732563;81;21209;-61
2020/12/20 03:09:07;;;;;;;25.43;15.00;;;;;;;4.38;72.86;101977.36;1738464;81;21284;-61
2020/12/20 03:11:36;;;;;;;22.65;13.58;;;;;;;4.38;72.85;101977.36;1747622;81;21174;-61
2020/12/20 03:14:05;;;;;;;21.17;13.25;;;;;;;4.42;72.83;101971.83;1739667;81;21103;-62
2020/12/20 03:16:34;;;;;;;24.50;14.40;;;;;;;4.45;72.73;101973.25;1724760;81;21180;-61
2020/12/20 03:19:02;;;;;;;22.58;14.18;;;;;;;4.46;72.59;101978.95;1726749;81;21136;-61
2020/12/20 03:21:29;;;;;;;26.93;15.00;;;;;;;4.44;72.76;101984.52;1750806;80;21107;-62
2020/12/20 03:24:05;;;;;;;31.80;22.50;;;;;;;4.47;72.68;101980.72;1801877;77;28581;-60
2020/12/20 03:26:51;;;;;;;25.27;15.53;;;;;;;4.46;72.70;101981.16;1731742;81;21184;-61
2020/12/20 03:29:39;;;;;;;25.15;15.28;;;;;;;4.51;72.64;101977.84;1753837;81;21162;-61
2020/12/20 03:32:11;;;;;;;22.32;14.47;;;;;;;4.51;72.38;101984.36;1738942;81;21146;-62
2020/12/20 03:34:46;;;;;;;22.13;13.15;;;;;;;4.48;72.45;101982.94;1730958;81;21210;-60
2020/12/20 03:37:15;;;;;;;23.65;14.00;;;;;;;4.46;72.16;101989.37;1729560;81;21158;-61
2020/12/20 03:39:45;;;;;;;23.27;14.30;;;;;;;4.41;71.97;101987.03;1731762;81;21146;-61
2020/12/20 03:42:13;;;;;;;21.23;13.28;;;;;;;4.30;71.80;101978.77;1731635;81;21626;-61
2020/12/20 03:44:41;;;;;;;20.27;13.55;;;;;;;4.23;71.81;101981.95;1732250;81;21182;-61
2020/12/20 03:47:09;;;;;;;22.32;14.23;;;;;;;4.14;71.84;101984.70;1712994;83;21213;-61
2020/12/20 03:49:38;;;;;;;23.30;13.28;;;;;;;4.06;71.67;101984.80;1697228;84;21176;-61
2020/12/20 03:52:06;;;;;;;22.30;12.68;;;;;;;3.97;71.62;101985.72;1697181;83;21207;-60
2020/12/20 03:54:35;;;;;;;22.07;13.98;;;;;;;3.88;71.77;101986.25;1724833;83;21269;-62
2020/12/20 03:57:03;;;;;;;18.67;12.20;;;;;;;3.80;71.84;101986.34;1702433;83;21479;-61
2020/12/20 03:59:31;;;;;;;21.12;13.55;;;;;;;3.76;71.96;101993.55;1702856;83;21358;-62
2020/12/20 04:01:59;;;;;;;21.70;13.15;;;;;;;3.71;72.05;101993.36;1698076;83;21190;-61
2020/12/20 04:04:27;;;;;;;20.72;12.85;;;;;;;3.70;72.09;101992.89;1696722;84;21169;-61
2020/12/20 04:06:54;;;;;;;22.13;12.40;;;;;;;3.66;72.08;101995.75;1698207;83;21676;-61
2020/12/20 04:09:23;;;;;;;21.23;12.78;;;;;;;3.65;72.03;101997.01;1692515;83;21126;-61
2020/12/20 04:12:02;;;;;;;23.10;13.28;;;;;;;3.60;71.94;101998.09;1712380;84;21139;-61
2020/12/20 04:14:31;;;;;;;19.83;12.80;;;;;;;3.55;71.84;102004.42;1705108;83;21195;-62
2020/12/20 04:16:59;;;;;;;18.62;12.23;;;;;;;3.49;71.89;102002.86;1705937;83;21872;-61
2020/12/20 04:19:26;;;;;;;21.37;12.82;;;;;;;3.44;71.88;102003.49;1711775;83;21162;-61
2020/12/20 04:21:56;;;;;;;19.45;12.85;;;;;;;3.38;71.80;102011.91;1701074;83;21154;-61
2020/12/20 04:24:31;;;;;;;30.57;20.53;;;;;;;3.38;71.86;102008.00;1789955;77;31485;-59
2020/12/20 04:26:59;;;;;;;23.15;14.15;;;;;;;3.34;71.99;102017.80;1739227;81;21111;-59
2020/12/20 04:29:40;;;;;;;19.60;12.88;;;;;;;3.38;71.72;102019.72;1821027;77;22198;-59
2020/12/20 04:32:09;;;;;;;20.10;12.98;;;;;;;3.27;71.88;102024.06;1755675;80;21142;-61
2020/12/20 04:34:38;;;;;;;18.87;11.48;;;;;;;3.26;71.99;102025.28;1756837;80;21161;-61
2020/12/20 04:37:05;;;;;;;21.77;12.60;;;;;;;3.24;71.84;102029.52;1758801;80;21472;-62
2020/12/20 04:39:35;;;;;;;20.82;12.82;;;;;;;3.22;71.88;102029.87;1768076;80;21139;-62
2020/12/20 04:42:03;;;;;;;22.65;13.50;;;;;;;3.16;71.95;102031.80;1764953;80;21142;-62
2020/12/20 04:44:32;;;;;;;20.08;12.58;;;;;;;3.15;72.04;102033.02;1780824;80;21176;-62
2020/12/20 04:47:02;;;;;;;20.77;12.88;;;;;;;3.13;72.07;102034.26;1762286;80;21135;-62
2020/12/20 04:49:38;;;;;;;18.42;12.07;;;;;;;3.11;72.01;102041.10;1761101;81;21167;-60
2020/12/20 04:52:09;;;;;;;20.65;12.93;;;;;;;3.11;71.97;102035.47;1763255;80;21135;-59
2020/12/20 04:54:39;;;;;;;21.95;12.50;;;;;;;3.15;71.85;102042.12;1728770;80;21155;-60
2020/12/20 04:57:08;;;;;;;19.90;12.20;;;;;;;3.10;71.84;102048.00;1772008;80;21135;-60
2020/12/20 04:59:37;;;;;;;20.40;12.28;;;;;;;3.10;71.82;102049.30;1764955;80;21177;-60
2020/12/20 05:02:07;;;;;;;20.52;12.68;;;;;;;3.08;71.78;102049.67;1756949;80;21145;-59
2020/12/20 05:04:36;;;;;;;21.57;13.70;;;;;;;3.05;71.91;102056.04;1742658;81;21145;-61
2020/12/20 05:07:05;;;;;;;24.77;14.07;;;;;;;3.05;71.85;102055.12;1779083;80;21170;-61
2020/12/20 05:09:49;;;;;;;22.27;12.82;;;;;;;3.04;71.91;102053.34;1772314;80;21345;-62
2020/12/20 05:12:34;;;;;;;24.32;14.05;;;;;;;3.03;71.95;102056.77;1773341;80;21570;-60
2020/12/20 05:15:22;;;;;;;24.43;14.33;;;;;;;3.06;71.92;102063.41;1759757;80;21272;-60
2020/12/20 05:18:13;;;;;;;25.17;14.73;;;;;;;3.05;71.82;102061.63;1764118;80;21280;-59
2020/12/20 05:20:48;;;;;;;25.10;14.47;;;;;;;3.06;71.78;102051.31;1812947;77;22593;-58
2020/12/20 05:23:18;;;;;;;27.07;14.90;;;;;;;3.03;71.78;102061.58;1752846;81;21138;-59
2020/12/20 05:25:47;;;;;;;25.82;14.20;;;;;;;3.01;71.70;102059.31;1748571;81;21138;-60
2020/12/20 05:28:24;;;;;;;23.38;14.07;;;;;;;3.00;71.66;102067.03;1774315;81;21144;-60
2020/12/20 05:31:08;;;;;;;24.40;14.43;;;;;;;2.97;71.54;102068.67;1771413;81;21169;-59
2020/12/20 05:33:43;;;;;;;22.90;14.63;;;;;;;2.92;71.56;102071.47;1736613;81;21665;-63
2020/12/20 05:36:16;;;;;;;24.15;13.38;;;;;;;2.90;71.50;102074.41;1751018;80;21310;-62
2020/12/20 05:38:45;;;;;;;24.50;13.60;;;;;;;2.88;71.49;102075.17;1741065;81;21238;-63
2020/12/20 05:41:14;;;;;;;22.42;13.78;;;;;;;2.83;71.40;102081.05;1722338;81;21102;-61
2020/12/20 05:43:43;;;;;;;24.75;15.00;;;;;;;2.80;71.43;102078.72;1756711;81;21162;-62
2020/12/20 05:46:11;;;;;;;27.17;14.63;;;;;;;2.76;71.44;102078.97;1740480;81;21161;-63
2020/12/20 05:48:40;;;;;;;26.77;15.23;;;;;;;2.77;71.35;102075.97;1687167;81;21139;-61
2020/12/20 05:51:10;;;;;;;49.65;22.70;;;;;;;2.78;71.23;102081.66;1752914;80;21142;-62
2020/12/20 05:53:38;;;;;;;58.68;27.70;;;;;;;2.76;71.14;102085.47;1749750;81;21134;-60
2020/12/20 05:56:06;;;;;;;49.05;24.72;;;;;;;2.70;71.19;102090.38;1761856;81;21268;-61
2020/12/20 05:58:34;;;;;;;57.65;27.13;;;;;;;2.68;71.52;102090.31;1768557;81;21270;-62
2020/12/20 06:01:03;;;;;;;53.63;26.57;;;;;;;2.75;71.64;102087.59;1744036;81;21601;-61
2020/12/20 06:03:31;;;;;;;47.23;24.35;;;;;;;2.80;71.73;102095.63;1758886;81;21150;-61
2020/12/20 06:06:01;;;;;;;45.10;23.75;;;;;;;2.84;71.78;102098.85;1767440;81;21573;-62
2020/12/20 06:08:32;;;;;;;46.40;22.20;;;;;;;2.87;71.93;102102.87;1771424;81;21146;-62
2020/12/20 06:11:02;;;;;;;46.37;22.87;;;;;;;2.94;72.02;102104.07;1752809;80;21601;-62
2020/12/20 06:13:31;;;;;;;43.05;22.37;;;;;;;3.02;72.15;102108.32;1760056;81;21135;-61
2020/12/20 06:15:58;;;;;;;37.85;20.23;;;;;;;3.12;72.15;102107.93;1761726;80;21122;-61
2020/12/20 06:18:29;;;;;;;41.08;21.33;;;;;;;3.18;72.21;102109.52;1754658;81;21147;-63
2020/12/20 06:21:00;;;;;;;35.20;19.20;;;;;;;3.24;72.14;102112.80;1733810;81;21614;-62
2020/12/20 06:23:32;;;;;;;31.50;19.95;;;;;;;3.30;72.14;102116.12;1748097;81;21595;-62
2020/12/20 06:26:03;;;;;;;33.13;18.90;;;;;;;3.32;72.35;102116.66;1743031;81;21131;-63
2020/12/20 06:28:32;;;;;;;31.90;16.90;;;;;;;3.33;72.54;102110.63;1745103;81;21147;-59
2020/12/20 06:31:01;;;;;;;31.05;16.70;;;;;;;3.47;72.43;102113.84;1744792;81;21277;-61
2020/12/20 06:33:45;;;;;;;29.70;16.85;;;;;;;3.58;72.43;102113.02;1747847;82;21151;-61
2020/12/20 06:36:14;;;;;;;27.40;17.27;;;;;;;3.62;72.52;102107.55;1732131;81;21170;-62
2020/12/20 06:38:54;;;;;;;30.15;16.40;;;;;;;3.70;72.45;102108.35;1716536;82;21170;-61
2020/12/20 06:41:35;;;;;;;28.38;16.60;;;;;;;3.82;72.26;102117.10;1708982;82;21170;-59
2020/12/20 06:44:15;;;;;;;27.73;17.00;;;;;;;3.83;72.37;102120.19;1741626;82;22224;-62
2020/12/20 06:46:44;;;;;;;26.82;16.35;;;;;;;3.87;72.49;102122.53;1735399;81;21175;-61
2020/12/20 06:49:37;;;;;;;30.85;17.48;;;;;;;3.89;72.68;102123.89;1743972;81;21147;-61
2020/12/20 06:52:23;;;;;;;30.08;17.55;;;;;;;3.94;72.72;102121.98;1747929;82;21139;-62
2020/12/20 06:55:14;;;;;;;29.23;17.00;;;;;;;4.02;72.72;102118.39;1739147;81;21181;-59
2020/12/20 06:58:05;;;;;;;;;;;;;;;4.05;72.73;102115.91;1708299;83;21257;-61
2020/12/20 07:00:55;;;;;;;32.38;14.15;;;;;;;4.13;72.76;102114.92;1668106;85;20131;-61
2020/12/20 07:03:31;;;;;;;27.07;14.50;;;;;;;4.20;72.90;102113.06;1720263;82;21166;-61
2020/12/20 07:06:10;;;;;;;24.52;15.18;;;;;;;4.28;72.94;102114.27;1743733;81;21088;-63
2020/12/20 07:08:40;;;;;;;34.03;15.93;;;;;;;4.39;72.81;102115.14;1734197;81;21115;-61
2020/12/20 07:11:21;;;;;;;26.60;15.43;;;;;;;4.49;72.88;102115.09;1721588;82;21127;-64
2020/12/20 07:13:51;;;;;;;24.70;15.25;;;;;;;4.54;72.47;102117.48;1732986;82;21626;-62
2020/12/20 07:16:20;;;;;;;26.87;15.07;;;;;;;4.59;72.43;102123.77;1729750;81;21127;-62
2020/12/20 07:18:59;;;;;;;26.45;14.85;;;;;;;4.66;72.41;102127.08;1735284;82;21171;-62
2020/12/20 07:21:35;;;;;;;28.02;14.45;;;;;;;4.70;72.51;102124.20;1727592;82;21734;-61
2020/12/20 07:24:19;;;;;;;24.87;14.98;;;;;;;4.78;72.56;102125.80;1734632;81;21174;-63
2020/12/20 07:26:47;;;;;;;25.70;15.78;;;;;;;4.89;72.49;102132.34;1726444;82;21151;-61
2020/12/20 07:29:16;;;;;;;28.32;15.55;;;;;;;4.96;72.49;102129.53;1728398;80;21590;-63
2020/12/20 07:31:52;;;;;;;26.37;16.48;;;;;;;5.00;72.50;102132.34;1742442;82;21095;-61
2020/12/20 07:34:19;;;;;;;27.70;15.20;;;;;;;5.06;72.53;102129.98;1745401;82;21286;-60
2020/12/20 07:36:46;;;;;;;27.98;16.35;;;;;;;5.15;72.41;102129.83;1750837;81;21585;-63
2020/12/20 07:39:14;;;;;;;29.67;16.60;;;;;;;5.19;72.32;102136.95;1751971;80;21101;-60
2020/12/20 07:41:42;;;;;;;26.70;15.90;;;;;;;5.24;72.25;102138.02;1752577;81;21534;-63
2020/12/20 07:44:10;;;;;;;30.75;15.30;;;;;;;5.28;72.36;102135.13;1756356;81;21578;-61
2020/12/20 07:46:39;;;;;;;24.65;14.60;;;;;;;5.38;72.38;102134.62;1759936;81;21126;-61
2020/12/20 07:49:12;;;;;;;28.05;15.78;;;;;;;5.49;72.15;102136.34;1755575;81;21614;-63
2020/12/20 07:51:40;;;;;;;29.80;15.72;;;;;;;5.54;72.15;102140.42;1759083;81;21106;-61
2020/12/20 07:54:11;;;;;;;24.12;14.58;;;;;;;5.60;72.07;102144.56;1744717;81;21550;-61
2020/12/20 07:56:43;;;;;;;24.72;13.75;;;;;;;5.56;72.25;102142.23;1761339;81;21138;-61
2020/12/20 07:59:13;;;;;;;24.60;13.62;;;;;;;5.60;72.34;102140.22;1755393;81;21585;-63
2020/12/20 08:01:46;;;;;;;26.40;14.45;;;;;;;5.66;72.33;102139.57;1740138;81;21086;-63
2020/12/20 08:04:18;;;;;;;24.75;14.35;;;;;;;5.71;72.27;102141.03;1754686;81;21845;-63
2020/12/20 08:06:49;;;;;;;26.68;16.07;;;;;;;5.75;72.34;102139.00;1755650;81;21127;-63
2020/12/20 08:09:20;;;;;;;26.35;15.35;;;;;;;5.79;72.35;102140.89;1755414;81;21122;-61
2020/12/20 08:11:48;;;;;;;30.90;18.33;;;;;;;5.93;72.21;102141.38;1750835;81;21547;-61
2020/12/20 08:14:19;;;;;;;31.62;17.70;;;;;;;5.99;72.04;102138.08;1753261;81;21130;-61
2020/12/20 08:16:50;;;;;;;31.30;17.35;;;;;;;6.04;71.92;102138.77;1758627;81;21115;-62
2020/12/20 08:19:28;;;;;;;29.77;18.30;;;;;;;6.07;71.77;102141.88;1753807;81;21171;-61
2020/12/20 08:22:14;;;;;;;27.05;16.30;;;;;;;6.11;71.73;102146.39;1748358;81;21130;-62
2020/12/20 08:24:45;;;;;;;28.55;15.93;;;;;;;6.08;71.83;102148.89;1680653;84;21635;-62
2020/12/20 08:27:25;;;;;;;29.25;15.88;;;;;;;6.16;72.03;102152.67;1690302;84;21601;-61
2020/12/20 08:29:57;;;;;;;29.50;15.90;;;;;;;6.27;71.96;102145.62;1686441;85;21211;-62
2020/12/20 08:32:42;;;;;;;25.92;15.78;;;;;;;6.25;72.06;102149.47;1694729;84;21301;-62
2020/12/20 08:35:19;;;;;;;27.35;14.50;;;;;;;6.32;72.00;102149.28;1715207;83;21162;-62
2020/12/20 08:37:53;;;;;;;26.23;14.75;;;;;;;6.35;72.12;102142.41;1689083;84;21167;-62
2020/12/20 08:40:21;;;;;;;25.62;15.05;;;;;;;6.39;72.32;102146.91;1696947;84;21174;-62
2020/12/20 08:42:51;;;;;;;28.35;15.13;;;;;;;6.47;72.12;102151.52;1723196;83;21162;-62
2020/12/20 08:45:21;;;;;;;26.60;13.70;;;;;;;6.47;72.18;102155.44;1724646;82;21677;-62
2020/12/20 08:47:49;;;;;;;28.12;14.58;;;;;;;6.49;72.23;102155.07;1724475;83;21165;-62
2020/12/20 08:50:24;;;;;;;27.22;14.65;;;;;;;6.57;72.18;102153.60;1717123;83;21554;-62
2020/12/20 08:53:01;;;;;;;23.83;14.33;;;;;;;6.56;71.86;102154.44;1724295;83;21162;-61
2020/12/20 08:55:29;;;;;;;25.37;15.23;;;;;;;6.64;72.01;102155.98;1721911;82;21118;-62
2020/12/20 08:58:05;;;;;;;25.08;14.55;;;;;;;6.67;72.05;102151.73;1724321;83;21537;-62
2020/12/20 09:00:35;;;;;;;34.40;14.25;;;;;;;6.72;71.78;102146.66;1722992;83;21191;-62
2020/12/20 09:03:04;;;;;;;33.65;15.43;;;;;;;6.74;71.77;102146.30;1725242;83;21146;-63
2020/12/20 09:05:34;;;;;;;32.83;15.43;;;;;;;6.80;71.73;102144.28;1682463;83;21553;-62
2020/12/20 09:08:04;;;;;;;37.17;15.18;;;;;;;6.83;71.64;102149.21;1703845;84;21193;-62
2020/12/20 09:10:35;;;;;;;24.98;14.38;;;;;;;6.83;71.76;102140.05;1725139;82;21542;-63
2020/12/20 09:13:07;;;;;;;19.95;13.38;;;;;;;6.86;71.71;102141.86;1691589;82;21628;-62
2020/12/20 09:15:42;;;;;;;20.55;13.90;;;;;;;6.85;71.54;102137.03;1710626;82;21599;-62
2020/12/20 09:18:18;;;;;;;21.45;13.05;;;;;;;6.82;71.16;102138.67;1722020;83;21154;-62
2020/12/20 09:20:47;;;;;;;22.32;13.68;;;;;;;6.75;71.21;102137.60;1699802;83;21118;-62
2020/12/20 09:23:23;;;;;;;45.92;27.35;;;;;;;6.70;70.93;102133.52;1713441;82;21608;-62
2020/12/20 09:25:59;;;;;;;25.57;16.17;;;;;;;6.65;71.04;102130.29;1701019;84;21599;-62
2020/12/20 09:28:27;;;;;;;22.58;13.62;;;;;;;6.63;70.96;102130.22;1703656;84;21171;-63
2020/12/20 09:30:57;;;;;;;20.77;13.32;;;;;;;6.55;71.49;102126.06;1722119;83;21605;-64
2020/12/20 09:33:33;;;;;;;20.30;13.08;;;;;;;6.54;71.66;102132.56;1706266;83;21168;-64
2020/12/20 09:36:11;;;;;;;19.77;13.15;;;;;;;6.54;71.64;102133.88;1714454;83;21237;-63
2020/12/20 09:38:46;;;;;;;20.27;12.30;;;;;;;6.53;71.71;102134.28;1690002;84;21175;-63
2020/12/20 09:41:20;;;;;;;22.62;13.85;;;;;;;6.55;71.48;102135.66;1699112;83;21304;-63
2020/12/20 09:43:49;;;;;;;21.80;13.80;;;;;;;6.55;71.24;102133.04;1689679;84;21143;-61
2020/12/20 09:46:32;;;;;;;37.28;23.47;;;;;;;6.54;71.26;102126.90;1724815;82;21619;-61
2020/12/20 09:48:59;;;;;;;23.62;15.45;;;;;;;6.55;71.45;102130.42;1718538;82;21176;-62
2020/12/20 09:51:27;;;;;;;26.05;16.35;;;;;;;6.50;70.96;102128.95;1725074;82;21146;-62
2020/12/20 09:53:55;;;;;;;26.77;14.98;;;;;;;6.47;71.39;102129.28;1725213;83;21438;-63
2020/12/20 09:56:23;;;;;;;20.08;13.15;;;;;;;6.39;71.24;102129.91;1725109;82;21593;-62
2020/12/20 09:58:50;;;;;;;20.15;12.20;;;;;;;6.42;71.40;102126.93;1709048;83;21554;-63
2020/12/20 10:01:23;;;;;;;18.55;12.37;;;;;;;6.42;71.42;102126.93;1693399;84;21347;-62
2020/12/20 10:03:50;;;;;;;20.75;13.18;;;;;;;6.43;71.36;102122.17;1721376;83;21138;-63
2020/12/20 10:06:18;;;;;;;16.65;10.03;;;;;;;6.40;71.52;102119.92;1723357;82;21169;-62
2020/12/20 10:08:46;;;;;;;16.12;10.05;;;;;;;6.42;71.01;102121.70;1722426;83;21474;-63
2020/12/20 10:11:18;;;;;;;15.15;10.50;;;;;;;6.39;70.82;102123.37;1716546;83;21568;-62
2020/12/20 10:13:46;;;;;;;16.97;11.35;;;;;;;6.35;70.62;102117.56;1725278;83;21134;-62
2020/12/20 10:16:19;;;;;;;18.62;12.68;;;;;;;6.29;70.51;102118.66;1721640;82;21144;-62
2020/12/20 10:18:47;;;;;;;21.57;13.18;;;;;;;6.20;70.74;102117.05;1696318;84;21272;-62
2020/12/20 10:21:15;;;;;;;20.85;13.28;;;;;;;6.19;70.64;102121.80;1698296;84;21635;-63
2020/12/20 10:23:44;;;;;;;20.30;13.53;;;;;;;6.18;70.66;102117.01;1692451;84;21130;-64
2020/12/20 10:26:12;;;;;;;28.38;17.70;;;;;;;6.20;70.81;102110.50;1738725;82;21160;-62
2020/12/20 10:28:40;;;;;;;25.43;16.85;;;;;;;6.20;70.88;102110.11;1743725;81;21568;-63
2020/12/20 10:31:07;;;;;;;25.80;16.27;;;;;;;6.16;70.63;102108.66;1735501;81;21573;-63
2020/12/20 10:33:37;;;;;;;25.27;16.62;;;;;;;6.20;70.83;102101.35;1734870;82;21249;-62
2020/12/20 10:36:04;;;;;;;23.20;14.63;;;;;;;6.25;70.85;102097.17;1738751;81;21290;-62
2020/12/20 10:38:33;;;;;;;25.43;16.42;;;;;;;6.31;70.85;102099.99;1740717;82;21155;-62
2020/12/20 10:41:01;;;;;;;26.95;15.90;;;;;;;6.32;70.91;102092.62;1741171;81;21286;-63
2020/12/20 10:47:33;;;;;;;23.47;14.53;;;;;;;6.44;70.90;102086.89;1815525;77;22581;-60
2020/12/20 10:50:01;;;;;;;23.27;15.08;;;;;;;6.46;70.97;102094.37;1776331;80;21134;-60
2020/12/20 10:52:28;;;;;;;26.10;15.93;;;;;;;6.51;70.86;102098.02;1759583;80;21119;-60
2020/12/20 10:54:56;;;;;;;24.80;16.32;;;;;;;6.54;70.63;102094.64;1761713;80;21205;-61
2020/12/20 10:57:24;;;;;;;26.97;18.37;;;;;;;6.51;70.80;102091.48;1723157;83;21134;-61
2020/12/20 10:59:52;;;;;;;24.63;15.68;;;;;;;6.51;70.86;102093.23;1737349;82;21152;-62
2020/12/20 11:02:20;;;;;;;25.92;16.23;;;;;;;6.53;70.69;102092.86;1727171;82;21174;-61
2020/12/20 11:04:48;;;;;;;23.90;13.88;;;;;;;6.53;70.80;102088.50;1727393;82;21327;-61
2020/12/20 11:07:16;;;;;;;23.65;14.90;;;;;;;6.59;70.89;102091.75;1725952;82;21154;-61
2020/12/20 11:09:45;;;;;;;25.08;14.18;;;;;;;6.58;71.19;102089.06;1732562;82;21553;-61
2020/12/20 11:12:13;;;;;;;24.98;15.23;;;;;;;6.60;71.00;102090.00;1726952;82;21150;-60
2020/12/20 11:14:42;;;;;;;23.40;14.55;;;;;;;6.59;70.72;102091.75;1729978;82;21127;-61
2020/12/20 11:17:09;;;;;;;25.43;15.00;;;;;;;6.57;70.70;102088.59;1738421;82;21154;-61
2020/12/20 11:19:37;;;;;;;29.30;18.45;;;;;;;6.54;70.67;102087.66;1743297;82;21628;-61
2020/12/20 11:22:05;;;;;;;23.73;16.07;;;;;;;6.53;70.75;102079.78;1737373;82;21171;-62
2020/12/20 11:24:34;;;;;;;21.90;14.53;;;;;;;6.54;70.60;102076.32;1736949;82;21273;-62
2020/12/20 11:27:02;;;;;;;24.55;15.78;;;;;;;6.50;70.22;102083.16;1729029;82;21154;-63
2020/12/20 11:29:29;;;;;;;24.23;15.18;;;;;;;6.47;70.32;102082.19;1716433;83;22185;-62
2020/12/20 11:31:57;;;;;;;21.23;13.72;;;;;;;6.42;70.47;102079.84;1714472;83;21221;-63
2020/12/20 11:34:24;;;;;;;21.23;14.07;;;;;;;6.44;70.37;102076.42;1714539;83;21588;-63
2020/12/20 11:36:52;;;;;;;19.42;12.82;;;;;;;6.44;70.51;102083.40;1725209;82;21170;-63
2020/12/20 11:39:22;;;;;;;21.25;13.15;;;;;;;6.47;70.18;102079.58;1732828;82;21136;-62